TAF Text Data
IDs:
Format:
Raw Decoded Include METAR

Data at: 1131 UTC 30 Oct 2020

TAF for:KCLT (Charlotte/Douglas In, NC, US) issued at 1001 UTC 30 Oct 2020
Text:KCLT 301001Z 3010/3112 29007KT P6SM SKC
Forecast period:1000 to 1300 UTC 30 October 2020
Forecast type:FROM: standard forecast or significant change
Winds:from the WNW (290 degrees) at 8 MPH (7 knots; 3.6 m/s)
Visibility:6 or more sm (10+ km)
Ceiling:at least 12,000 feet AGL
Clouds:clear skies
Text:FM301300 31008G19KT P6SM SKC
Forecast period:1300 to 2000 UTC 30 October 2020
Forecast type:FROM: standard forecast or significant change
Winds:from the NW (310 degrees) at 9 MPH (8 knots; 4.1 m/s) gusting to 22 MPH (19 knots; 9.8 m/s)
Visibility:6 or more sm (10+ km)
Ceiling:at least 12,000 feet AGL
Clouds:clear skies
Text:FM302000 01009KT P6SM FEW180
Forecast period:2000 UTC 30 October 2020 to 1200 UTC 31 October 2020
Forecast type:FROM: standard forecast or significant change
Winds:from the N (10 degrees) at 10 MPH (9 knots; 4.6 m/s)
Visibility:6 or more sm (10+ km)
Ceiling:at least 12,000 feet AGL
Clouds: few clouds at 18000 feet AGL